createdAt,value
2022-09-28T00:00:48.885Z,98290.84
2022-09-28T00:05:51.060Z,98277.84
2022-09-28T00:10:56.984Z,98266.59
2022-09-28T00:16:07.810Z,98308.91
2022-09-28T00:21:18.461Z,98289.88
2022-09-28T00:26:20.570Z,98290.78
2022-09-28T00:31:25.329Z,98236.34
2022-09-28T00:36:32.280Z,98256.97
2022-09-28T00:41:35.876Z,98265.56
2022-09-28T00:46:38.046Z,98222.41
2022-09-28T00:51:41.341Z,98234.53
2022-09-28T00:56:46.784Z,98168.88
2022-09-28T01:01:49.569Z,98239.66
2022-09-28T01:06:52.166Z,98182.69
2022-09-28T01:11:55.362Z,98230.06
2022-09-28T01:17:05.346Z,98184.28
2022-09-28T01:22:34.999Z,98219.63
2022-09-28T01:27:45.232Z,98202.38
2022-09-28T01:32:55.418Z,98205.84
2022-09-28T01:38:03.422Z,98197.16
2022-09-28T01:43:17.323Z,98174.72
2022-09-28T01:48:42.857Z,98172.91
2022-09-28T01:53:53.960Z,98145.31
2022-09-28T01:59:12.940Z,98089.25
2022-09-28T02:04:19.153Z,98072.81
2022-09-28T02:09:34.307Z,98109.81
2022-09-28T02:14:38.581Z,98118.47
2022-09-28T02:19:41.545Z,98102.97
2022-09-28T02:25:08.087Z,98126.16
2022-09-28T02:30:10.904Z,98100.28
2022-09-28T02:35:15.008Z,98114.06
2022-09-28T02:40:19.566Z,98128.72
2022-09-28T02:45:59.516Z,98114.75
2022-09-28T02:51:40.199Z,98044.09
2022-09-28T02:57:00.150Z,98049.19
2022-09-28T03:02:26.180Z,98061.22
2022-09-28T03:07:33.704Z,98085.50
2022-09-28T03:12:37.358Z,98040.63
2022-09-28T03:17:39.919Z,98025.03
2022-09-28T03:22:42.385Z,98061.22
2022-09-28T03:27:44.825Z,98058.66
2022-09-28T03:32:48.812Z,98062.13
2022-09-28T03:37:56.428Z,98047.41
2022-09-28T03:43:00.950Z,98081.69
2022-09-28T03:48:03.351Z,98070.63
2022-09-28T03:53:06.224Z,98007.66
2022-09-28T03:58:08.384Z,98013.66
2022-09-28T04:03:10.649Z,98015.31
2022-09-28T04:08:12.890Z,98031.66
2022-09-28T04:13:15.418Z,98029.00
2022-09-28T04:18:17.735Z,97924.78
2022-09-28T04:23:40.879Z,98014.34
2022-09-28T04:29:06.573Z,97990.19
2022-09-28T04:34:09.634Z,98015.09
2022-09-28T04:39:16.274Z,98008.13
2022-09-28T04:44:21.263Z,98003.59
2022-09-28T04:49:25.856Z,97984.03
2022-09-28T04:54:29.662Z,97953.88
2022-09-28T04:59:32.204Z,97993.50
2022-09-28T05:04:38.080Z,97987.38
2022-09-28T05:09:45.969Z,97984.72
2022-09-28T05:14:50.019Z,97822.84
2022-09-28T05:19:52.276Z,97898.53
2022-09-28T05:24:55.197Z,97944.13
2022-09-28T05:29:59.521Z,97932.03
2022-09-28T05:35:24.733Z,97967.25
2022-09-28T05:40:26.883Z,97893.22
2022-09-28T05:45:29.815Z,97832.97
2022-09-28T05:50:32.230Z,97931.91
2022-09-28T05:55:35.609Z,97912.97
2022-09-28T06:00:37.743Z,97932.63
2022-09-28T06:05:40.580Z,97894.69
2022-09-28T06:10:42.915Z,97911.06
2022-09-28T06:15:47.019Z,97926.41
2022-09-28T06:20:49.904Z,97882.47
2022-09-28T06:25:54.527Z,97909.94
2022-09-28T06:30:56.903Z,97889.34
2022-09-28T06:35:59.956Z,97905.66
2022-09-28T06:41:02.270Z,97917.72
2022-09-28T06:46:04.752Z,97932.22
2022-09-28T06:51:25.417Z,97919.28
2022-09-28T06:56:33.230Z,97888.25
2022-09-28T07:01:35.699Z,97866.69
2022-09-28T07:06:56.437Z,97916.53
2022-09-28T07:12:17.035Z,97899.34
2022-09-28T07:17:32.475Z,97857.94
2022-09-28T07:22:43.135Z,97879.47
2022-09-28T07:27:50.720Z,97770.16
2022-09-28T07:33:14.731Z,97894.72
2022-09-28T07:38:29.539Z,97834.53
2022-09-28T07:43:32.841Z,97888.63
2022-09-28T07:48:36.991Z,97877.41
2022-09-28T07:53:50.581Z,97855.81
2022-09-28T07:59:17.892Z,97884.13
2022-09-28T08:04:38.513Z,97885.72
2022-09-28T08:09:40.854Z,97850.34
2022-09-28T08:15:01.351Z,97878.59
2022-09-28T08:20:40.557Z,97900.13
2022-09-28T08:25:50.722Z,97850.97
2022-09-28T08:30:54.551Z,97882.81
2022-09-28T08:36:06.236Z,97887.81
2022-09-28T08:41:34.175Z,97886.88
2022-09-28T08:46:55.856Z,97863.47
2022-09-28T08:52:14.650Z,97799.03
2022-09-28T08:57:34.679Z,97853.06
2022-09-28T09:02:39.849Z,97861.53
2022-09-28T09:07:59.354Z,97876.09
2022-09-28T09:13:17.696Z,97873.31
2022-09-28T09:18:34.285Z,97887.22
2022-09-28T09:23:54.999Z,97886.34
2022-09-28T09:29:09.837Z,97868.13
2022-09-28T09:34:35.609Z,97883.50
2022-09-28T09:40:15.352Z,97870.31
2022-09-28T09:46:12.868Z,97876.34
2022-09-28T09:52:05.285Z,97841.09
2022-09-28T09:57:15.374Z,97840.22
2022-09-28T10:02:34.787Z,97824.75
2022-09-28T10:07:55.406Z,97880.56
2022-09-28T10:12:58.245Z,97852.16
2022-09-28T10:18:06.957Z,97857.19
2022-09-28T10:23:31.501Z,97852.81
2022-09-28T10:28:40.327Z,97877.72
2022-09-28T10:33:42.964Z,97834.81
2022-09-28T10:38:48.159Z,97846.69
2022-09-28T10:44:11.139Z,97865.59
2022-09-28T10:49:43.202Z,97866.28
2022-09-28T10:54:53.768Z,97858.56
2022-09-28T10:59:57.610Z,97845.78
2022-09-28T11:05:22.316Z,97873.91
2022-09-28T11:10:31.224Z,97854.22
2022-09-28T11:15:42.887Z,97849.84
2022-09-28T11:20:47.259Z,97859.41
2022-09-28T11:26:00.734Z,97848.22
2022-09-28T11:31:09.418Z,97886.06
2022-09-28T11:36:43.305Z,97886.81
2022-09-28T11:41:58.705Z,97890.28
2022-09-28T11:47:25.292Z,97882.38
2022-09-28T11:52:39.888Z,97838.63
2022-09-28T11:57:45.041Z,97841.16
2022-09-28T12:03:09.642Z,97880.50
2022-09-28T12:08:27.842Z,97876.31
2022-09-28T12:13:42.417Z,97826.53
2022-09-28T12:19:04.499Z,97859.94
2022-09-28T12:24:27.608Z,97869.38
2022-09-28T12:29:39.340Z,97890.09
2022-09-28T12:34:43.105Z,97842.03
2022-09-28T12:39:59.316Z,97894.38
2022-09-28T12:46:10.935Z,97863.38
2022-09-28T12:51:41.677Z,97889.94
2022-09-28T12:57:07.938Z,97855.50
2022-09-28T13:02:50.321Z,97887.25
2022-09-28T13:08:05.648Z,97883.88
2022-09-28T13:13:23.181Z,97885.53
2022-09-28T13:18:34.991Z,97857.31
2022-09-28T13:23:43.729Z,97888.38
2022-09-28T13:28:50.465Z,97859.28
2022-09-28T13:33:53.769Z,97879.06
2022-09-28T13:38:59.583Z,97882.47
2022-09-28T13:44:11.057Z,97895.38
2022-09-28T13:49:21.413Z,97854.19
2022-09-28T13:54:51.165Z,97884.03
2022-09-28T14:00:12.067Z,97883.06
2022-09-28T14:05:28.914Z,97895.31
2022-09-28T14:11:12.290Z,97883.16
2022-09-28T14:16:22.470Z,97896.25
2022-09-28T14:22:06.537Z,97901.38
2022-09-28T14:27:17.523Z,97915.44
2022-09-28T14:32:25.089Z,97876.88
2022-09-28T14:37:53.954Z,97872.66
2022-09-28T14:43:24.418Z,97923.25
2022-09-28T14:48:53.675Z,97920.69
2022-09-28T14:54:07.944Z,97921.56
2022-09-28T14:59:30.481Z,97935.50
2022-09-28T15:04:39.378Z,97944.38
2022-09-28T15:09:41.892Z,97916.13
2022-09-28T15:15:03.172Z,97934.16
2022-09-28T15:20:29.085Z,97969.56
2022-09-28T15:25:41.383Z,97961.16
2022-09-28T15:30:46.319Z,97974.03
2022-09-28T15:36:04.085Z,97979.31
2022-09-28T15:41:07.150Z,97938.91
2022-09-28T15:46:21.217Z,97943.16
2022-09-28T15:51:24.425Z,97970.81
2022-09-28T15:56:27.821Z,97917.63
2022-09-28T16:01:40.050Z,97970.03
2022-09-28T16:06:42.261Z,97975.28
2022-09-28T16:11:44.494Z,97892.75
2022-09-28T16:16:51.143Z,97973.53
2022-09-28T16:21:58.949Z,97957.94
2022-09-28T16:27:09.857Z,97997.53
2022-09-28T16:32:27.110Z,97996.59
2022-09-28T16:37:32.885Z,97988.22
2022-09-28T16:42:35.786Z,98006.28
2022-09-28T16:47:39.648Z,97950.28
2022-09-28T16:53:00.376Z,97960.59
2022-09-28T16:58:04.941Z,98004.59
2022-09-28T17:03:15.510Z,97972.00
2022-09-28T17:08:19.587Z,98020.25
2022-09-28T17:13:23.718Z,98023.75
2022-09-28T17:18:26.077Z,97998.84
2022-09-28T17:23:28.282Z,97997.09
2022-09-28T17:28:33.209Z,98032.41
2022-09-28T17:33:35.420Z,98001.47
2022-09-28T17:38:37.675Z,98000.69
2022-09-28T17:43:41.552Z,97916.34
2022-09-28T17:48:47.632Z,97942.16
2022-09-28T17:53:50.053Z,97955.19
2022-09-28T17:58:52.854Z,97935.31
2022-09-28T18:03:56.947Z,98011.94
2022-09-28T18:08:59.359Z,98006.91
2022-09-28T18:14:01.920Z,97982.81
2022-09-28T18:19:04.192Z,97994.81
2022-09-28T18:24:07.702Z,97893.25
2022-09-28T18:29:10.869Z,98031.72
2022-09-28T18:34:13.873Z,97986.97
2022-09-28T18:39:16.133Z,97991.28
2022-09-28T18:44:18.370Z,97976.72
2022-09-28T18:49:21.513Z,98002.44
2022-09-28T18:54:23.912Z,97999.06
2022-09-28T18:59:26.173Z,97981.09
2022-09-28T19:04:33.744Z,97949.25
2022-09-28T19:09:35.964Z,97976.78
2022-09-28T19:14:38.222Z,97997.47
2022-09-28T19:19:42.850Z,97962.25
2022-09-28T19:24:45.039Z,98044.94
2022-09-28T19:29:47.293Z,98000.97
2022-09-28T19:34:49.454Z,97989.88
2022-09-28T19:39:51.671Z,97952.06
2022-09-28T19:44:53.845Z,97990.78
2022-09-28T19:49:56.104Z,98015.78
2022-09-28T19:54:58.394Z,98026.13
2022-09-28T20:00:03.576Z,98021.06
2022-09-28T20:05:09.272Z,98065.88
2022-09-28T20:10:12.186Z,98003.06
2022-09-28T20:15:17.794Z,98025.47
2022-09-28T20:20:20.226Z,97943.84
2022-09-28T20:25:22.515Z,98059.94
2022-09-28T20:30:24.647Z,98072.97
2022-09-28T20:35:32.959Z,98073.06
2022-09-28T20:40:40.408Z,98064.63
2022-09-28T20:45:43.339Z,98077.63
2022-09-28T20:50:45.907Z,98087.16
2022-09-28T20:55:48.069Z,98084.50
2022-09-28T21:00:53.284Z,98106.97
2022-09-28T21:05:55.880Z,98009.59
2022-09-28T21:10:58.535Z,98108.59
2022-09-28T21:16:04.676Z,98108.69
2022-09-28T21:21:08.676Z,98114.69
2022-09-28T21:26:24.973Z,98112.06
2022-09-28T21:31:30.121Z,98121.63
2022-09-28T21:36:32.653Z,98113.13
2022-09-28T21:41:34.927Z,98077.69
2022-09-28T21:46:38.751Z,98090.84
2022-09-28T21:51:41.172Z,98105.38
2022-09-28T21:56:43.476Z,98082.91
2022-09-28T22:01:45.716Z,98110.63
2022-09-28T22:06:48.020Z,98119.31
2022-09-28T22:11:51.356Z,98082.31
2022-09-28T22:16:53.593Z,98103.06
2022-09-28T22:21:55.730Z,98043.63
2022-09-28T22:26:58.055Z,98031.56
2022-09-28T22:32:02.599Z,98092.72
2022-09-28T22:37:04.866Z,98110.75
2022-09-28T22:42:08.404Z,98133.25
2022-09-28T22:47:10.701Z,98150.53
2022-09-28T22:52:12.905Z,98109.13
2022-09-28T22:57:15.102Z,98098.00
2022-09-28T23:02:17.286Z,98136.84
2022-09-28T23:07:20.123Z,98134.19
2022-09-28T23:12:22.344Z,98123.84
2022-09-28T23:17:24.533Z,98101.47
2022-09-28T23:22:26.675Z,98140.38
2022-09-28T23:27:28.850Z,98102.53
2022-09-28T23:32:32.135Z,98137.75
2022-09-28T23:37:34.449Z,98151.53
2022-09-28T23:42:36.630Z,98153.28
2022-09-28T23:47:38.994Z,98107.69
2022-09-28T23:52:41.107Z,98139.59
2022-09-28T23:57:44.284Z,98155.19
